createdAt,value
2024-01-15T00:04:06.096Z,0.50
2024-01-15T00:08:23.692Z,0.40
2024-01-15T00:12:41.462Z,0.50
2024-01-15T00:16:59.573Z,0.50
2024-01-15T00:21:17.390Z,0.40
2024-01-15T00:25:35.303Z,0.40
2024-01-15T00:29:53.707Z,0.40
2024-01-15T00:34:12.096Z,0.40
2024-01-15T00:38:30.513Z,0.40
2024-01-15T00:42:49.394Z,0.40
2024-01-15T00:47:07.175Z,0.40
2024-01-15T00:51:24.782Z,0.40
2024-01-15T00:55:43.025Z,0.30
2024-01-15T01:00:03.771Z,0.30
2024-01-15T01:04:23.921Z,0.30
2024-01-15T01:08:41.954Z,0.20
2024-01-15T01:12:59.584Z,0.20
2024-01-15T01:17:17.435Z,0.20
2024-01-15T01:21:35.687Z,0.20
2024-01-15T01:25:53.684Z,0.30
2024-01-15T01:30:11.476Z,0.30
2024-01-15T01:34:31.238Z,0.30
2024-01-15T01:38:50.633Z,0.30
2024-01-15T01:43:10.090Z,0.20
2024-01-15T01:47:27.932Z,0.20
2024-01-15T01:51:46.234Z,0.10
2024-01-15T01:56:04.755Z,0.10
2024-01-15T02:00:22.228Z,0.00
2024-01-15T02:04:40.734Z,-0.10
2024-01-15T02:08:58.433Z,-0.10
2024-01-15T02:13:16.171Z,-0.20
2024-01-15T02:17:33.689Z,-0.10
2024-01-15T02:21:51.460Z,-0.20
2024-01-15T02:26:10.533Z,-0.10
2024-01-15T02:30:29.792Z,-0.10
2024-01-15T02:34:47.543Z,-0.10
2024-01-15T02:39:05.466Z,-0.10
2024-01-15T02:43:23.022Z,-0.10
2024-01-15T02:47:40.773Z,-0.20
2024-01-15T02:51:58.538Z,-0.20
2024-01-15T02:56:16.358Z,-0.30
2024-01-15T03:00:35.479Z,-0.40
2024-01-15T03:04:53.874Z,-0.50
2024-01-15T03:09:12.336Z,-0.60
2024-01-15T03:13:30.070Z,-0.70
2024-01-15T03:17:48.107Z,-0.70
2024-01-15T03:22:05.912Z,-0.80
2024-01-15T03:26:24.215Z,-0.70
2024-01-15T03:30:43.255Z,-0.70
2024-01-15T03:35:01.893Z,-0.70
2024-01-15T03:39:20.292Z,-0.70
2024-01-15T03:43:38.002Z,-0.70
2024-01-15T03:47:55.963Z,-0.70
2024-01-15T03:52:13.637Z,-0.60
2024-01-15T03:56:31.301Z,-0.70
2024-01-15T04:00:49.515Z,-0.70
2024-01-15T04:05:07.387Z,-0.70
2024-01-15T04:09:25.382Z,-0.70
2024-01-15T04:13:43.438Z,-0.70
2024-01-15T04:18:02.318Z,-0.80
2024-01-15T04:22:20.010Z,-0.80
2024-01-15T04:26:37.491Z,-0.80
2024-01-15T04:30:55.521Z,-0.80
2024-01-15T04:35:14.846Z,-0.70
2024-01-15T04:39:32.312Z,-0.70
2024-01-15T04:43:50.204Z,-0.70
2024-01-15T04:48:08.356Z,-0.70
2024-01-15T04:52:27.104Z,-0.70
2024-01-15T04:56:45.852Z,-0.70
2024-01-15T05:01:03.635Z,-0.70
2024-01-15T05:05:21.764Z,-0.60
2024-01-15T05:09:39.577Z,-0.60
2024-01-15T05:13:57.212Z,-0.60
2024-01-15T05:18:15.474Z,-0.30
2024-01-15T05:22:33.262Z,-0.40
2024-01-15T05:26:50.802Z,-0.50
2024-01-15T05:31:13.307Z,-0.40
2024-01-15T05:35:31.380Z,-0.40
2024-01-15T05:39:49.153Z,-0.40
2024-01-15T05:44:06.934Z,-0.40
2024-01-15T05:48:26.130Z,-0.40
2024-01-15T05:52:46.783Z,-0.40
2024-01-15T05:57:04.534Z,-0.40
2024-01-15T06:01:21.934Z,-0.40
2024-01-15T06:05:41.473Z,-0.50
2024-01-15T06:09:59.222Z,-0.60
2024-01-15T06:14:16.896Z,-0.70
2024-01-15T06:18:34.726Z,-0.70
2024-01-15T06:22:52.738Z,-0.70
2024-01-15T06:27:11.907Z,-0.70
2024-01-15T06:31:31.273Z,-0.60
2024-01-15T06:35:50.958Z,-0.60
2024-01-15T06:40:10.090Z,-0.60
2024-01-15T06:44:27.452Z,-0.50
2024-01-15T06:48:46.885Z,-0.50
2024-01-15T06:53:04.632Z,-0.50
2024-01-15T06:57:21.983Z,-0.60
2024-01-15T07:01:39.627Z,-0.70
2024-01-15T07:05:58.171Z,-0.70
2024-01-15T07:10:15.687Z,-0.70
2024-01-15T07:14:33.788Z,-0.70
2024-01-15T07:18:51.364Z,-0.70
2024-01-15T07:23:09.026Z,-0.80
2024-01-15T07:27:27.057Z,-0.80
2024-01-15T07:31:51.895Z,-0.90
2024-01-15T07:36:12.975Z,-0.80
2024-01-15T07:40:30.531Z,-0.80
2024-01-15T07:44:48.280Z,-0.80
2024-01-15T07:49:09.383Z,-0.80
2024-01-15T07:53:27.038Z,-0.70
2024-01-15T07:57:50.666Z,-0.60
2024-01-15T08:02:11.152Z,-0.70
2024-01-15T08:06:29.023Z,-0.60
2024-01-15T08:10:46.722Z,-0.60
2024-01-15T08:15:06.545Z,-0.60
2024-01-15T08:19:25.154Z,-0.50
2024-01-15T08:23:43.209Z,-0.50
2024-01-15T08:28:01.136Z,-0.40
2024-01-15T08:32:18.584Z,-0.40
2024-01-15T08:36:37.728Z,-0.40
2024-01-15T08:40:58.126Z,-0.40
2024-01-15T08:45:16.192Z,-0.30
2024-01-15T08:49:33.707Z,-0.40
2024-01-15T08:53:51.060Z,-0.40
2024-01-15T08:58:09.686Z,-0.30
2024-01-15T09:02:30.550Z,-0.20
2024-01-15T09:06:48.583Z,-0.20
2024-01-15T09:11:06.122Z,-0.10
2024-01-15T09:15:23.464Z,-0.10
2024-01-15T09:19:41.351Z,-0.10
2024-01-15T09:23:59.455Z,-0.10
2024-01-15T09:28:17.421Z,0.00
2024-01-15T09:32:35.095Z,0.00
2024-01-15T09:36:53.310Z,0.10
2024-01-15T09:41:10.844Z,0.20
2024-01-15T09:45:28.675Z,0.20
2024-01-15T09:49:46.446Z,0.20
2024-01-15T09:54:05.205Z,0.30
2024-01-15T09:58:22.800Z,0.40
2024-01-15T10:02:41.622Z,0.50
2024-01-15T10:07:02.172Z,0.70
2024-01-15T10:11:19.930Z,0.80
2024-01-15T10:15:39.586Z,0.80
2024-01-15T10:19:57.864Z,0.80
2024-01-15T10:24:15.967Z,0.90
2024-01-15T10:28:35.849Z,1.30
2024-01-15T10:33:04.569Z,1.20
2024-01-15T10:37:22.755Z,1.20
2024-01-15T10:41:41.387Z,1.20
2024-01-15T10:45:58.867Z,1.30
2024-01-15T10:50:16.810Z,1.10
2024-01-15T10:54:38.446Z,0.90
2024-01-15T10:59:00.611Z,1.00
2024-01-15T11:03:20.140Z,1.30
2024-01-15T11:07:42.936Z,1.70
2024-01-15T11:12:12.833Z,1.60
2024-01-15T11:16:54.940Z,1.60
2024-01-15T11:21:19.790Z,1.90
2024-01-15T11:25:38.614Z,2.20
2024-01-15T11:30:18.521Z,2.20
2024-01-15T11:35:16.369Z,2.20
2024-01-15T11:39:34.277Z,1.90
2024-01-15T11:43:51.801Z,1.80
2024-01-15T11:48:17.477Z,1.70
2024-01-15T11:52:37.478Z,1.40
2024-01-15T11:56:56.480Z,1.40
2024-01-15T12:01:14.070Z,1.60
2024-01-15T12:05:31.899Z,1.60
2024-01-15T12:09:52.067Z,1.70
2024-01-15T12:14:09.665Z,1.60
2024-01-15T12:18:28.456Z,1.40
2024-01-15T12:22:56.574Z,1.30
2024-01-15T12:27:19.515Z,1.20
2024-01-15T12:31:40.537Z,1.20
2024-01-15T12:35:59.834Z,1.20
2024-01-15T12:40:21.697Z,1.20
2024-01-15T12:44:40.427Z,1.40
2024-01-15T12:48:58.795Z,1.50
2024-01-15T12:53:17.079Z,1.70
2024-01-15T12:57:35.706Z,1.70
2024-01-15T13:01:53.385Z,1.50
2024-01-15T13:06:11.137Z,1.40
2024-01-15T13:10:31.467Z,1.40
2024-01-15T13:14:49.343Z,1.30
2024-01-15T13:19:08.101Z,1.30
2024-01-15T13:23:25.430Z,1.30
2024-01-15T13:27:43.321Z,1.40
2024-01-15T13:32:01.900Z,1.50
2024-01-15T13:36:19.667Z,1.40
2024-01-15T13:40:38.102Z,1.40
2024-01-15T13:44:55.704Z,1.50
2024-01-15T13:49:16.264Z,1.40
2024-01-15T13:53:34.079Z,1.40
2024-01-15T13:57:51.778Z,1.40
2024-01-15T14:02:11.262Z,1.40
2024-01-15T14:06:29.223Z,1.40
2024-01-15T14:10:46.881Z,1.40
2024-01-15T14:15:05.066Z,1.30
2024-01-15T14:19:23.253Z,1.30
2024-01-15T14:23:41.313Z,1.20
2024-01-15T14:27:59.818Z,1.20
2024-01-15T14:32:17.814Z,1.10
2024-01-15T14:36:36.241Z,1.10
2024-01-15T14:40:53.789Z,1.10
2024-01-15T14:45:13.344Z,1.10
2024-01-15T14:49:33.331Z,1.10
2024-01-15T14:53:50.775Z,1.00
2024-01-15T14:58:09.317Z,1.00
2024-01-15T15:02:31.513Z,0.90
2024-01-15T15:06:51.582Z,0.90
2024-01-15T15:11:11.519Z,0.90
2024-01-15T15:15:29.153Z,0.90
2024-01-15T15:19:47.218Z,0.80
2024-01-15T15:24:04.997Z,0.70
2024-01-15T15:28:22.902Z,0.70
2024-01-15T15:32:41.071Z,0.70
2024-01-15T15:36:58.824Z,0.70
2024-01-15T15:41:16.456Z,0.60
2024-01-15T15:45:34.095Z,0.60
2024-01-15T15:49:52.251Z,0.60
2024-01-15T15:54:10.723Z,0.60
2024-01-15T15:58:28.233Z,0.50
2024-01-15T16:02:46.619Z,0.50
2024-01-15T16:07:09.450Z,0.50
2024-01-15T16:11:27.198Z,0.40
2024-01-15T16:15:45.805Z,0.40
2024-01-15T16:23:28.929Z,0.40
2024-01-15T16:24:51.136Z,0.50
2024-01-15T16:29:11.043Z,0.50
2024-01-15T16:33:29.119Z,0.40
2024-01-15T16:37:46.979Z,0.40
2024-01-15T16:42:06.106Z,0.50
2024-01-15T16:46:24.687Z,0.50
2024-01-15T16:50:42.686Z,0.60
2024-01-15T16:55:00.554Z,0.60
2024-01-15T16:59:18.180Z,0.70
2024-01-15T17:03:37.596Z,0.70
2024-01-15T17:07:56.479Z,0.60
2024-01-15T17:12:14.182Z,0.60
2024-01-15T17:16:31.891Z,0.60
2024-01-15T17:20:50.568Z,0.60
2024-01-15T17:25:09.016Z,0.70
2024-01-15T17:29:26.727Z,0.70
2024-01-15T17:33:44.345Z,0.70
2024-01-15T17:38:02.022Z,0.70
2024-01-15T17:42:20.276Z,0.70
2024-01-15T17:46:37.772Z,0.70
2024-01-15T17:50:55.641Z,0.80
2024-01-15T17:55:13.857Z,0.90
2024-01-15T17:59:32.171Z,0.90
2024-01-15T18:03:50.220Z,0.90
2024-01-15T18:08:07.976Z,1.00
2024-01-15T18:12:27.063Z,1.00
2024-01-15T18:16:49.858Z,0.90
2024-01-15T18:21:07.399Z,0.90
2024-01-15T18:25:26.052Z,0.90
2024-01-15T18:29:46.316Z,0.80
2024-01-15T18:34:04.629Z,0.80
2024-01-15T18:38:22.782Z,0.90
2024-01-15T18:42:40.722Z,0.90
2024-01-15T18:46:59.031Z,0.90
2024-01-15T18:51:25.816Z,0.90
2024-01-15T18:55:43.932Z,1.00
2024-01-15T19:00:01.725Z,1.00
2024-01-15T19:04:20.008Z,1.10
2024-01-15T19:08:38.267Z,1.10
2024-01-15T19:12:55.759Z,1.10
2024-01-15T19:17:13.246Z,1.00
2024-01-15T19:21:31.758Z,1.00
2024-01-15T19:25:52.084Z,1.00
2024-01-15T19:30:14.314Z,1.00
2024-01-15T19:34:34.596Z,0.90
2024-01-15T19:38:54.130Z,0.70
2024-01-15T19:43:13.118Z,0.60
2024-01-15T19:47:39.855Z,0.70
2024-01-15T19:52:03.206Z,0.80
2024-01-15T19:56:27.924Z,0.50
2024-01-15T20:00:49.582Z,0.10
2024-01-15T20:05:10.818Z,-0.10
2024-01-15T20:09:31.771Z,-0.10
2024-01-15T20:13:53.872Z,-0.20
2024-01-15T20:18:12.282Z,-0.20
2024-01-15T20:22:35.573Z,-0.10
2024-01-15T20:26:54.405Z,-0.10
2024-01-15T20:31:14.375Z,-0.10
2024-01-15T20:35:37.884Z,0.00
2024-01-15T20:39:59.228Z,0.10
2024-01-15T20:44:20.487Z,0.10
2024-01-15T20:48:42.371Z,0.20
2024-01-15T20:53:03.750Z,0.30
2024-01-15T20:57:24.301Z,0.50
2024-01-15T21:01:41.973Z,0.70
2024-01-15T21:06:00.892Z,0.70
2024-01-15T21:10:25.752Z,0.80
2024-01-15T21:14:49.148Z,0.90
2024-01-15T21:19:06.658Z,0.90
2024-01-15T21:23:26.398Z,0.90
2024-01-15T21:27:44.740Z,0.90
2024-01-15T21:32:02.934Z,0.90
2024-01-15T21:36:23.151Z,0.90
2024-01-15T21:40:41.119Z,0.90
2024-01-15T21:44:58.693Z,0.90
2024-01-15T21:49:16.401Z,0.90
2024-01-15T21:53:34.657Z,0.90
2024-01-15T21:57:52.817Z,0.90
2024-01-15T22:02:11.252Z,0.90
2024-01-15T22:06:30.338Z,0.90
2024-01-15T22:10:48.219Z,0.90
2024-01-15T22:15:06.625Z,0.90
2024-01-15T22:19:25.675Z,0.90
2024-01-15T22:23:43.580Z,0.80
2024-01-15T22:28:01.331Z,0.80
2024-01-15T22:32:19.695Z,0.80
2024-01-15T22:36:37.611Z,0.80
2024-01-15T22:40:55.547Z,0.90
2024-01-15T22:45:16.646Z,0.80
2024-01-15T22:49:35.970Z,0.80
2024-01-15T22:53:55.009Z,0.70
2024-01-15T22:58:12.928Z,0.80
2024-01-15T23:02:30.846Z,0.80
2024-01-15T23:06:49.608Z,0.80
2024-01-15T23:11:12.448Z,0.80
2024-01-15T23:15:33.331Z,0.80
2024-01-15T23:19:54.144Z,0.70
2024-01-15T23:24:14.225Z,0.70
2024-01-15T23:28:34.021Z,0.70
2024-01-15T23:32:55.814Z,0.70
2024-01-15T23:37:16.768Z,0.60
2024-01-15T23:41:35.010Z,0.60
2024-01-15T23:45:59.453Z,0.60
2024-01-15T23:50:21.362Z,0.50
2024-01-15T23:54:39.581Z,0.50
2024-01-15T23:58:57.419Z,0.50
